sensor_id;sensor_type;location;lat;lon;timestamp;pressure;altitude;pressure_sealevel;temperature;humidity
67345;BME280;54230;52.402;6.276;2023-02-20T00:00:00;102480.0;;;5.1;100.0
67345;BME280;54230;52.402;6.276;2023-02-20T00:05:00;102490.00000000001;;;5.2;100.0
67345;BME280;54230;52.402;6.276;2023-02-20T00:10:00;102480.0;;;5.3;100.0
67345;BME280;54230;52.402;6.276;2023-02-20T00:15:00;102470.0;;;5.4;100.0
67345;BME280;54230;52.402;6.276;2023-02-20T00:20:00;102450.0;;;5.4;100.0
67345;BME280;54230;52.402;6.276;2023-02-20T00:25:00;102470.0;;;5.5;100.0
67345;BME280;54230;52.402;6.276;2023-02-20T00:30:00;102459.99999999999;;;5.5;100.0
67345;BME280;54230;52.402;6.276;2023-02-20T00:35:00;102450.0;;;5.5;100.0
67345;BME280;54230;52.402;6.276;2023-02-20T00:40:00;102450.0;;;5.6;100.0
67345;BME280;54230;52.402;6.276;2023-02-20T00:45:00;102420.0;;;5.5;100.0
67345;BME280;54230;52.402;6.276;2023-02-20T00:50:00;102430.0;;;5.6;100.0
67345;BME280;54230;52.402;6.276;2023-02-20T00:55:00;102420.0;;;5.6;100.0
67345;BME280;54230;52.402;6.276;2023-02-20T01:00:00;102409.99999999999;;;5.6;100.0
67345;BME280;54230;52.402;6.276;2023-02-20T01:05:00;102400.0;;;5.7;100.0
67345;BME280;54230;52.402;6.276;2023-02-20T01:10:00;102400.0;;;5.8;100.0
67345;BME280;54230;52.402;6.276;2023-02-20T01:15:00;102380.0;;;5.8;100.0
67345;BME280;54230;52.402;6.276;2023-02-20T01:20:00;102370.0;;;5.7;100.0
67345;BME280;54230;52.402;6.276;2023-02-20T01:25:00;102350.0;;;5.8;100.0
67345;BME280;54230;52.402;6.276;2023-02-20T01:30:00;102340.0;;;5.7;100.0
67345;BME280;54230;52.402;6.276;2023-02-20T01:35:00;102350.0;;;5.8;100.0
67345;BME280;54230;52.402;6.276;2023-02-20T01:40:00;102340.0;;;5.7;100.0
67345;BME280;54230;52.402;6.276;2023-02-20T01:45:13;102340.0;;;5.7;100.0
67345;BME280;54230;52.402;6.276;2023-02-20T01:50:01;102330.0;;;5.7;100.0
67345;BME280;54230;52.402;6.276;2023-02-20T01:55:03;102320.0;;;5.7;100.0
67345;BME280;54230;52.402;6.276;2023-02-20T02:00:04;102300.0;;;5.7;100.0
67345;BME280;54230;52.402;6.276;2023-02-20T02:05:00;102300.0;;;5.6;100.0
67345;BME280;54230;52.402;6.276;2023-02-20T02:10:03;102290.0;;;5.6;100.0
67345;BME280;54230;52.402;6.276;2023-02-20T02:15:00;102290.0;;;5.5;100.0
67345;BME280;54230;52.402;6.276;2023-02-20T02:25:14;102280.0;;;5.4;100.0
67345;BME280;54230;52.402;6.276;2023-02-20T02:30:17;102270.0;;;5.4;100.0
67345;BME280;54230;52.402;6.276;2023-02-20T02:40:02;102260.0;;;5.4;100.0
67345;BME280;54230;52.402;6.276;2023-02-20T02:45:02;102250.0;;;5.4;100.0
67345;BME280;54230;52.402;6.276;2023-02-20T02:50:04;102240.0;;;5.4;100.0
67345;BME280;54230;52.402;6.276;2023-02-20T02:55:00;102240.0;;;5.4;100.0
67345;BME280;54230;52.402;6.276;2023-02-20T03:00:04;102230.0;;;5.4;100.0
67345;BME280;54230;52.402;6.276;2023-02-20T03:05:03;102220.0;;;5.4;100.0
67345;BME280;54230;52.402;6.276;2023-02-20T03:10:03;102230.0;;;5.3;100.0
67345;BME280;54230;52.402;6.276;2023-02-20T03:15:04;102230.0;;;5.3;100.0
67345;BME280;54230;52.402;6.276;2023-02-20T03:20:03;102230.0;;;5.3;100.0
67345;BME280;54230;52.402;6.276;2023-02-20T03:25:03;102230.0;;;5.4;100.0
67345;BME280;54230;52.402;6.276;2023-02-20T03:30:01;102240.0;;;5.4;100.0
67345;BME280;54230;52.402;6.276;2023-02-20T03:35:01;102230.0;;;5.5;100.0
67345;BME280;54230;52.402;6.276;2023-02-20T03:40:05;102230.0;;;5.6;100.0
67345;BME280;54230;52.402;6.276;2023-02-20T03:45:01;102220.0;;;5.6;100.0
67345;BME280;54230;52.402;6.276;2023-02-20T03:50:01;102210.0;;;5.7;100.0
67345;BME280;54230;52.402;6.276;2023-02-20T03:55:00;102220.0;;;5.8;100.0
67345;BME280;54230;52.402;6.276;2023-02-20T04:00:02;102220.0;;;5.9;100.0
67345;BME280;54230;52.402;6.276;2023-02-20T04:05:04;102210.0;;;6.0;100.0
67345;BME280;54230;52.402;6.276;2023-02-20T04:10:03;102200.0;;;6.0;100.0
67345;BME280;54230;52.402;6.276;2023-02-20T04:15:01;102210.0;;;6.1;100.0
67345;BME280;54230;52.402;6.276;2023-02-20T04:20:00;102190.0;;;6.1;100.0
67345;BME280;54230;52.402;6.276;2023-02-20T04:25:02;102200.0;;;6.0;100.0
67345;BME280;54230;52.402;6.276;2023-02-20T04:30:00;102180.0;;;6.1;100.0
67345;BME280;54230;52.402;6.276;2023-02-20T04:35:00;102170.0;;;6.2;100.0
67345;BME280;54230;52.402;6.276;2023-02-20T04:40:00;102180.0;;;6.2;100.0
67345;BME280;54230;52.402;6.276;2023-02-20T04:45:00;102180.0;;;6.2;100.0
67345;BME280;54230;52.402;6.276;2023-02-20T04:50:00;102170.0;;;6.3;100.0
67345;BME280;54230;52.402;6.276;2023-02-20T04:55:00;102170.0;;;6.3;100.0
67345;BME280;54230;52.402;6.276;2023-02-20T05:00:00;102160.0;;;6.4;100.0
67345;BME280;54230;52.402;6.276;2023-02-20T05:05:00;102170.0;;;6.4;100.0
67345;BME280;54230;52.402;6.276;2023-02-20T05:10:00;102180.0;;;6.5;100.0
67345;BME280;54230;52.402;6.276;2023-02-20T05:15:00;102180.0;;;6.5;100.0
67345;BME280;54230;52.402;6.276;2023-02-20T05:20:00;102170.0;;;6.6;100.0
67345;BME280;54230;52.402;6.276;2023-02-20T05:25:00;102170.0;;;6.6;100.0
67345;BME280;54230;52.402;6.276;2023-02-20T05:30:01;102180.0;;;6.7;100.0
67345;BME280;54230;52.402;6.276;2023-02-20T05:35:00;102150.0;;;6.8;100.0
67345;BME280;54230;52.402;6.276;2023-02-20T05:40:00;102150.0;;;6.8;100.0
67345;BME280;54230;52.402;6.276;2023-02-20T05:45:00;102140.0;;;6.8;100.0
67345;BME280;54230;52.402;6.276;2023-02-20T05:50:00;102160.0;;;6.8;100.0
67345;BME280;54230;52.402;6.276;2023-02-20T05:55:00;102150.0;;;6.8;100.0
67345;BME280;54230;52.402;6.276;2023-02-20T06:00:00;102140.0;;;6.9;100.0
67345;BME280;54230;52.402;6.276;2023-02-20T06:05:00;102150.0;;;6.9;100.0
67345;BME280;54230;52.402;6.276;2023-02-20T06:10:00;102140.0;;;7.0;100.0
67345;BME280;54230;52.402;6.276;2023-02-20T06:15:00;102150.0;;;7.0;100.0
67345;BME280;54230;52.402;6.276;2023-02-20T06:20:00;102130.0;;;7.0;100.0
67345;BME280;54230;52.402;6.276;2023-02-20T06:25:00;102130.0;;;7.0;100.0
67345;BME280;54230;52.402;6.276;2023-02-20T06:30:00;102120.0;;;7.2;100.0
67345;BME280;54230;52.402;6.276;2023-02-20T06:35:00;102120.0;;;7.1;100.0
67345;BME280;54230;52.402;6.276;2023-02-20T06:40:02;102130.0;;;7.2;100.0
67345;BME280;54230;52.402;6.276;2023-02-20T06:45:00;102130.0;;;7.2;100.0
67345;BME280;54230;52.402;6.276;2023-02-20T06:50:00;102110.0;;;7.2;100.0
67345;BME280;54230;52.402;6.276;2023-02-20T06:55:00;102110.0;;;7.2;100.0
67345;BME280;54230;52.402;6.276;2023-02-20T07:00:00;102120.0;;;7.3;100.0
67345;BME280;54230;52.402;6.276;2023-02-20T07:05:00;102130.0;;;7.3;100.0
67345;BME280;54230;52.402;6.276;2023-02-20T07:10:00;102130.0;;;7.4;100.0
67345;BME280;54230;52.402;6.276;2023-02-20T07:15:00;102130.0;;;7.4;100.0
67345;BME280;54230;52.402;6.276;2023-02-20T07:20:00;102140.0;;;7.3;100.0
67345;BME280;54230;52.402;6.276;2023-02-20T07:25:00;102150.0;;;7.5;100.0
67345;BME280;54230;52.402;6.276;2023-02-20T07:30:00;102160.0;;;7.5;100.0
67345;BME280;54230;52.402;6.276;2023-02-20T07:35:00;102150.0;;;7.5;100.0
67345;BME280;54230;52.402;6.276;2023-02-20T07:40:00;102140.0;;;7.6;100.0
67345;BME280;54230;52.402;6.276;2023-02-20T07:45:00;102160.0;;;7.6;100.0
67345;BME280;54230;52.402;6.276;2023-02-20T07:50:00;102120.0;;;7.5;100.0
67345;BME280;54230;52.402;6.276;2023-02-20T07:55:00;102120.0;;;7.5;100.0
67345;BME280;54230;52.402;6.276;2023-02-20T08:00:00;102150.0;;;7.7;100.0
67345;BME280;54230;52.402;6.276;2023-02-20T08:05:00;102130.0;;;7.8;100.0
67345;BME280;54230;52.402;6.276;2023-02-20T08:10:00;102120.0;;;7.8;100.0
67345;BME280;54230;52.402;6.276;2023-02-20T08:15:00;102120.0;;;7.8;100.0
67345;BME280;54230;52.402;6.276;2023-02-20T08:20:00;102110.0;;;7.8;100.0
67345;BME280;54230;52.402;6.276;2023-02-20T08:25:00;102110.0;;;7.9;100.0
67345;BME280;54230;52.402;6.276;2023-02-20T08:30:00;102130.0;;;7.9;100.0
67345;BME280;54230;52.402;6.276;2023-02-20T08:35:00;102130.0;;;8.0;100.0
67345;BME280;54230;52.402;6.276;2023-02-20T08:40:00;102130.0;;;8.0;100.0
67345;BME280;54230;52.402;6.276;2023-02-20T08:45:00;102140.0;;;8.0;100.0
67345;BME280;54230;52.402;6.276;2023-02-20T08:50:00;102120.0;;;8.1;100.0
67345;BME280;54230;52.402;6.276;2023-02-20T08:55:00;102120.0;;;8.2;100.0
67345;BME280;54230;52.402;6.276;2023-02-20T09:00:00;102130.0;;;8.2;100.0
67345;BME280;54230;52.402;6.276;2023-02-20T09:05:00;102120.0;;;8.3;100.0
67345;BME280;54230;52.402;6.276;2023-02-20T09:10:00;102130.0;;;8.3;100.0
67345;BME280;54230;52.402;6.276;2023-02-20T09:15:00;102110.0;;;8.4;100.0
67345;BME280;54230;52.402;6.276;2023-02-20T09:20:00;102110.0;;;8.4;100.0
67345;BME280;54230;52.402;6.276;2023-02-20T09:25:00;102140.0;;;8.4;100.0
67345;BME280;54230;52.402;6.276;2023-02-20T09:30:00;102130.0;;;8.4;100.0
67345;BME280;54230;52.402;6.276;2023-02-20T09:35:00;102140.0;;;8.5;100.0
67345;BME280;54230;52.402;6.276;2023-02-20T09:40:00;102140.0;;;8.5;100.0
67345;BME280;54230;52.402;6.276;2023-02-20T09:45:05;102140.0;;;8.5;100.0
67345;BME280;54230;52.402;6.276;2023-02-20T09:50:03;102160.0;;;8.5;100.0
67345;BME280;54230;52.402;6.276;2023-02-20T09:55:02;102130.0;;;8.6;100.0
67345;BME280;54230;52.402;6.276;2023-02-20T10:00:04;102130.0;;;8.6;100.0
67345;BME280;54230;52.402;6.276;2023-02-20T10:05:03;102120.0;;;8.7;100.0
67345;BME280;54230;52.402;6.276;2023-02-20T10:10:16;102120.0;;;8.7;100.0
67345;BME280;54230;52.402;6.276;2023-02-20T10:15:08;102120.0;;;8.6;100.0
67345;BME280;54230;52.402;6.276;2023-02-20T10:20:08;102120.0;;;8.6;100.0
67345;BME280;54230;52.402;6.276;2023-02-20T10:25:07;102130.0;;;8.7;100.0
67345;BME280;54230;52.402;6.276;2023-02-20T10:30:01;102100.0;;;8.9;100.0
67345;BME280;54230;52.402;6.276;2023-02-20T10:35:03;102110.0;;;8.9;100.0
67345;BME280;54230;52.402;6.276;2023-02-20T10:40:04;102120.0;;;8.9;100.0
67345;BME280;54230;52.402;6.276;2023-02-20T10:45:04;102110.0;;;8.8;100.0
67345;BME280;54230;52.402;6.276;2023-02-20T10:50:04;102120.0;;;8.8;100.0
67345;BME280;54230;52.402;6.276;2023-02-20T10:55:05;102090.0;;;8.6;100.0
67345;BME280;54230;52.402;6.276;2023-02-20T11:00:04;102140.0;;;8.9;100.0
67345;BME280;54230;52.402;6.276;2023-02-20T11:05:04;102160.0;;;8.9;100.0
67345;BME280;54230;52.402;6.276;2023-02-20T11:10:00;102150.0;;;8.9;100.0
67345;BME280;54230;52.402;6.276;2023-02-20T11:15:04;102150.0;;;8.9;100.0
67345;BME280;54230;52.402;6.276;2023-02-20T11:20:02;102120.0;;;8.7;100.0
67345;BME280;54230;52.402;6.276;2023-02-20T11:25:15;102120.0;;;8.8;100.0
67345;BME280;54230;52.402;6.276;2023-02-20T11:30:03;102140.0;;;8.9;100.0
67345;BME280;54230;52.402;6.276;2023-02-20T11:35:14;102130.0;;;9.0;100.0
67345;BME280;54230;52.402;6.276;2023-02-20T11:40:00;102140.0;;;9.0;100.0
67345;BME280;54230;52.402;6.276;2023-02-20T11:45:12;102130.0;;;9.1;100.0
67345;BME280;54230;52.402;6.276;2023-02-20T11:50:13;102120.0;;;9.1;100.0
67345;BME280;54230;52.402;6.276;2023-02-20T11:55:09;102090.0;;;9.0;100.0
67345;BME280;54230;52.402;6.276;2023-02-20T12:00:12;102110.0;;;9.2;100.0
67345;BME280;54230;52.402;6.276;2023-02-20T12:05:04;102110.0;;;9.2;100.0
67345;BME280;54230;52.402;6.276;2023-02-20T12:10:09;102110.0;;;9.1;100.0
67345;BME280;54230;52.402;6.276;2023-02-20T12:15:00;102100.0;;;9.1;100.0
67345;BME280;54230;52.402;6.276;2023-02-20T12:20:07;102100.0;;;9.0;100.0
67345;BME280;54230;52.402;6.276;2023-02-20T12:25:11;102110.0;;;9.1;100.0
67345;BME280;54230;52.402;6.276;2023-02-20T12:30:05;102100.0;;;9.0;100.0
67345;BME280;54230;52.402;6.276;2023-02-20T12:35:05;102110.0;;;9.0;100.0
67345;BME280;54230;52.402;6.276;2023-02-20T12:40:08;102110.0;;;9.0;100.0
67345;BME280;54230;52.402;6.276;2023-02-20T12:45:13;102090.0;;;9.0;100.0
67345;BME280;54230;52.402;6.276;2023-02-20T12:50:14;102090.0;;;9.0;100.0
67345;BME280;54230;52.402;6.276;2023-02-20T12:55:07;102090.0;;;9.2;100.0
67345;BME280;54230;52.402;6.276;2023-02-20T13:00:03;102080.0;;;9.2;100.0
67345;BME280;54230;52.402;6.276;2023-02-20T13:05:02;102080.0;;;9.1;100.0
67345;BME280;54230;52.402;6.276;2023-02-20T13:10:03;102090.0;;;9.2;100.0
67345;BME280;54230;52.402;6.276;2023-02-20T13:15:11;102090.0;;;9.2;100.0
67345;BME280;54230;52.402;6.276;2023-02-20T13:20:08;102090.0;;;9.1;100.0
67345;BME280;54230;52.402;6.276;2023-02-20T13:30:11;102060.0;;;9.1;100.0
67345;BME280;54230;52.402;6.276;2023-02-20T13:45:00;102050.0;;;9.3;100.0
67345;BME280;54230;52.402;6.276;2023-02-20T13:50:02;102060.0;;;9.2;100.0
67345;BME280;54230;52.402;6.276;2023-02-20T13:55:03;102050.0;;;9.2;100.0
67345;BME280;54230;52.402;6.276;2023-02-20T14:00:01;102030.0;;;9.3;100.0
67345;BME280;54230;52.402;6.276;2023-02-20T14:05:02;102010.0;;;9.3;100.0
67345;BME280;54230;52.402;6.276;2023-02-20T14:10:03;102010.0;;;9.4;100.0
67345;BME280;54230;52.402;6.276;2023-02-20T14:15:03;102000.0;;;9.4;100.0
67345;BME280;54230;52.402;6.276;2023-02-20T14:20:01;102010.0;;;9.4;100.0
67345;BME280;54230;52.402;6.276;2023-02-20T14:25:18;102000.0;;;9.4;100.0
67345;BME280;54230;52.402;6.276;2023-02-20T14:30:05;102010.0;;;9.5;100.0
67345;BME280;54230;52.402;6.276;2023-02-20T14:35:05;102040.0;;;9.4;100.0
67345;BME280;54230;52.402;6.276;2023-02-20T14:40:04;102020.0;;;9.5;100.0
67345;BME280;54230;52.402;6.276;2023-02-20T14:45:02;102010.0;;;9.5;100.0
67345;BME280;54230;52.402;6.276;2023-02-20T14:50:14;102000.0;;;9.5;100.0
67345;BME280;54230;52.402;6.276;2023-02-20T14:55:02;102000.0;;;9.5;100.0
67345;BME280;54230;52.402;6.276;2023-02-20T15:00:10;101990.0;;;9.6;100.0
67345;BME280;54230;52.402;6.276;2023-02-20T15:05:03;102000.0;;;9.5;100.0
67345;BME280;54230;52.402;6.276;2023-02-20T15:10:04;102010.0;;;9.5;100.0
67345;BME280;54230;52.402;6.276;2023-02-20T15:15:03;102000.0;;;9.4;100.0
67345;BME280;54230;52.402;6.276;2023-02-20T15:20:18;102020.0;;;9.4;100.0
67345;BME280;54230;52.402;6.276;2023-02-20T15:25:11;102000.0;;;9.4;100.0
67345;BME280;54230;52.402;6.276;2023-02-20T15:30:12;102000.0;;;9.4;100.0
67345;BME280;54230;52.402;6.276;2023-02-20T15:35:00;102000.0;;;9.4;100.0
67345;BME280;54230;52.402;6.276;2023-02-20T15:40:16;101980.0;;;9.1;100.0
67345;BME280;54230;52.402;6.276;2023-02-20T15:45:00;102010.0;;;9.3;100.0
67345;BME280;54230;52.402;6.276;2023-02-20T15:50:00;102030.0;;;9.2;100.0
67345;BME280;54230;52.402;6.276;2023-02-20T15:55:00;102030.0;;;9.2;100.0
67345;BME280;54230;52.402;6.276;2023-02-20T16:00:00;102040.0;;;9.2;100.0
67345;BME280;54230;52.402;6.276;2023-02-20T16:05:00;102040.0;;;9.1;100.0
67345;BME280;54230;52.402;6.276;2023-02-20T16:10:00;102030.0;;;9.1;100.0
67345;BME280;54230;52.402;6.276;2023-02-20T16:15:00;102020.0;;;9.1;100.0
67345;BME280;54230;52.402;6.276;2023-02-20T16:20:00;102010.0;;;9.0;100.0
67345;BME280;54230;52.402;6.276;2023-02-20T16:25:00;102010.0;;;9.0;100.0
67345;BME280;54230;52.402;6.276;2023-02-20T16:30:00;101990.0;;;8.9;100.0
67345;BME280;54230;52.402;6.276;2023-02-20T16:35:00;102000.0;;;9.0;100.0
67345;BME280;54230;52.402;6.276;2023-02-20T16:40:00;102020.0;;;8.9;100.0
67345;BME280;54230;52.402;6.276;2023-02-20T16:45:03;102020.0;;;8.9;100.0
67345;BME280;54230;52.402;6.276;2023-02-20T16:50:00;102020.0;;;8.9;100.0
67345;BME280;54230;52.402;6.276;2023-02-20T16:55:01;102000.0;;;8.8;100.0
67345;BME280;54230;52.402;6.276;2023-02-20T17:00:00;102000.0;;;8.8;100.0
67345;BME280;54230;52.402;6.276;2023-02-20T17:05:00;102010.0;;;8.8;100.0
67345;BME280;54230;52.402;6.276;2023-02-20T17:10:00;102010.0;;;8.8;100.0
67345;BME280;54230;52.402;6.276;2023-02-20T17:15:00;102000.0;;;8.7;100.0
67345;BME280;54230;52.402;6.276;2023-02-20T17:20:01;102010.0;;;8.8;100.0
67345;BME280;54230;52.402;6.276;2023-02-20T17:25:01;102020.0;;;8.8;100.0
67345;BME280;54230;52.402;6.276;2023-02-20T17:30:01;102010.0;;;8.8;100.0
67345;BME280;54230;52.402;6.276;2023-02-20T17:35:00;102030.0;;;8.8;100.0
67345;BME280;54230;52.402;6.276;2023-02-20T17:40:01;102030.0;;;8.8;100.0
67345;BME280;54230;52.402;6.276;2023-02-20T17:45:00;102010.0;;;8.8;100.0
67345;BME280;54230;52.402;6.276;2023-02-20T17:50:00;102020.0;;;8.7;100.0
67345;BME280;54230;52.402;6.276;2023-02-20T17:55:00;102030.0;;;8.7;100.0
67345;BME280;54230;52.402;6.276;2023-02-20T18:00:00;102030.0;;;8.7;100.0
67345;BME280;54230;52.402;6.276;2023-02-20T18:05:00;102040.0;;;8.7;100.0
67345;BME280;54230;52.402;6.276;2023-02-20T18:10:00;102040.0;;;8.8;100.0
67345;BME280;54230;52.402;6.276;2023-02-20T18:15:00;102030.0;;;8.7;100.0
67345;BME280;54230;52.402;6.276;2023-02-20T18:20:00;102030.0;;;8.7;100.0
67345;BME280;54230;52.402;6.276;2023-02-20T18:25:00;102040.0;;;8.7;100.0
67345;BME280;54230;52.402;6.276;2023-02-20T18:30:00;102030.0;;;8.7;100.0
67345;BME280;54230;52.402;6.276;2023-02-20T18:35:00;102030.0;;;8.6;100.0
67345;BME280;54230;52.402;6.276;2023-02-20T18:40:00;102020.0;;;8.5;100.0
67345;BME280;54230;52.402;6.276;2023-02-20T18:45:00;102010.0;;;8.4;100.0
67345;BME280;54230;52.402;6.276;2023-02-20T18:50:00;102010.0;;;8.5;100.0
67345;BME280;54230;52.402;6.276;2023-02-20T18:55:00;102010.0;;;8.4;100.0
67345;BME280;54230;52.402;6.276;2023-02-20T19:00:00;102000.0;;;8.4;100.0
67345;BME280;54230;52.402;6.276;2023-02-20T19:05:00;102010.0;;;8.4;100.0
67345;BME280;54230;52.402;6.276;2023-02-20T19:10:01;102010.0;;;8.5;100.0
67345;BME280;54230;52.402;6.276;2023-02-20T19:15:00;102010.0;;;8.5;100.0
67345;BME280;54230;52.402;6.276;2023-02-20T19:20:01;102010.0;;;8.5;100.0
67345;BME280;54230;52.402;6.276;2023-02-20T19:25:00;102000.0;;;8.5;100.0
67345;BME280;54230;52.402;6.276;2023-02-20T19:30:00;102000.0;;;8.4;100.0
67345;BME280;54230;52.402;6.276;2023-02-20T19:35:00;102000.0;;;8.5;100.0
67345;BME280;54230;52.402;6.276;2023-02-20T19:40:00;101990.0;;;8.5;100.0
67345;BME280;54230;52.402;6.276;2023-02-20T19:45:00;101990.0;;;8.5;100.0
67345;BME280;54230;52.402;6.276;2023-02-20T19:50:00;101990.0;;;8.4;100.0
67345;BME280;54230;52.402;6.276;2023-02-20T19:55:00;101990.0;;;8.4;100.0
67345;BME280;54230;52.402;6.276;2023-02-20T20:00:00;101990.0;;;8.4;100.0
67345;BME280;54230;52.402;6.276;2023-02-20T20:05:00;101990.0;;;8.4;100.0
67345;BME280;54230;52.402;6.276;2023-02-20T20:10:00;101990.0;;;8.4;100.0
67345;BME280;54230;52.402;6.276;2023-02-20T20:15:00;102000.0;;;8.4;100.0
67345;BME280;54230;52.402;6.276;2023-02-20T20:20:00;102000.0;;;8.4;100.0
67345;BME280;54230;52.402;6.276;2023-02-20T20:25:00;101990.0;;;8.5;100.0
67345;BME280;54230;52.402;6.276;2023-02-20T20:30:00;101990.0;;;8.4;100.0
67345;BME280;54230;52.402;6.276;2023-02-20T20:35:00;101980.0;;;8.4;100.0
67345;BME280;54230;52.402;6.276;2023-02-20T20:40:00;101990.0;;;8.5;100.0
67345;BME280;54230;52.402;6.276;2023-02-20T20:45:00;101990.0;;;8.5;100.0
67345;BME280;54230;52.402;6.276;2023-02-20T20:50:01;101980.0;;;8.4;100.0
67345;BME280;54230;52.402;6.276;2023-02-20T20:55:00;101980.0;;;8.4;100.0
67345;BME280;54230;52.402;6.276;2023-02-20T21:00:00;101980.0;;;8.4;100.0
67345;BME280;54230;52.402;6.276;2023-02-20T21:05:00;101980.0;;;8.5;100.0
67345;BME280;54230;52.402;6.276;2023-02-20T21:10:00;101990.0;;;8.5;100.0
67345;BME280;54230;52.402;6.276;2023-02-20T21:15:00;101980.0;;;8.4;100.0
67345;BME280;54230;52.402;6.276;2023-02-20T21:20:01;101980.0;;;8.5;100.0
67345;BME280;54230;52.402;6.276;2023-02-20T21:25:00;101980.0;;;8.6;100.0
67345;BME280;54230;52.402;6.276;2023-02-20T21:30:00;101980.0;;;8.5;100.0
67345;BME280;54230;52.402;6.276;2023-02-20T21:35:00;101980.0;;;8.6;100.0
67345;BME280;54230;52.402;6.276;2023-02-20T21:40:00;101970.0;;;8.6;100.0
67345;BME280;54230;52.402;6.276;2023-02-20T21:45:00;101980.0;;;8.6;100.0
67345;BME280;54230;52.402;6.276;2023-02-20T21:50:00;101980.0;;;8.6;100.0
67345;BME280;54230;52.402;6.276;2023-02-20T21:55:01;101980.0;;;8.6;100.0
67345;BME280;54230;52.402;6.276;2023-02-20T22:00:00;101980.0;;;8.6;100.0
67345;BME280;54230;52.402;6.276;2023-02-20T22:05:00;101990.0;;;8.6;100.0
67345;BME280;54230;52.402;6.276;2023-02-20T22:10:00;101970.0;;;8.6;100.0
67345;BME280;54230;52.402;6.276;2023-02-20T22:15:00;101970.0;;;8.5;100.0
67345;BME280;54230;52.402;6.276;2023-02-20T22:20:00;101950.0;;;8.5;100.0
67345;BME280;54230;52.402;6.276;2023-02-20T22:25:00;101970.0;;;8.6;100.0
67345;BME280;54230;52.402;6.276;2023-02-20T22:30:00;101970.0;;;8.6;100.0
67345;BME280;54230;52.402;6.276;2023-02-20T22:35:00;101970.0;;;8.6;100.0
67345;BME280;54230;52.402;6.276;2023-02-20T22:40:00;101980.0;;;8.6;100.0
67345;BME280;54230;52.402;6.276;2023-02-20T22:45:00;101980.0;;;8.6;100.0
67345;BME280;54230;52.402;6.276;2023-02-20T22:50:00;101980.0;;;8.7;100.0
67345;BME280;54230;52.402;6.276;2023-02-20T22:55:00;101980.0;;;8.6;100.0
67345;BME280;54230;52.402;6.276;2023-02-20T23:00:00;101980.0;;;8.6;100.0
67345;BME280;54230;52.402;6.276;2023-02-20T23:05:00;101980.0;;;8.7;100.0
67345;BME280;54230;52.402;6.276;2023-02-20T23:10:00;101980.0;;;8.7;100.0
67345;BME280;54230;52.402;6.276;2023-02-20T23:15:00;101970.0;;;8.7;100.0
67345;BME280;54230;52.402;6.276;2023-02-20T23:20:00;101970.0;;;8.7;100.0
67345;BME280;54230;52.402;6.276;2023-02-20T23:25:00;101980.0;;;8.7;100.0
67345;BME280;54230;52.402;6.276;2023-02-20T23:30:00;101970.0;;;8.7;100.0
67345;BME280;54230;52.402;6.276;2023-02-20T23:35:00;101970.0;;;8.7;100.0
67345;BME280;54230;52.402;6.276;2023-02-20T23:40:00;101980.0;;;8.7;100.0
67345;BME280;54230;52.402;6.276;2023-02-20T23:45:00;101980.0;;;8.8;100.0
67345;BME280;54230;52.402;6.276;2023-02-20T23:50:00;101980.0;;;8.8;100.0
67345;BME280;54230;52.402;6.276;2023-02-20T23:55:00;101980.0;;;8.8;100.0
